Observations for Trim Market St
| Time | AQI | Temp °C | Hum % | Pres Pa | CO μg/m³ | H₂S μg/m³ | NO μg/m³ | NO₂ μg/m³ | O₃ μg/m³ | SO₂ μg/m³ | PM1 μg/m³ | PM2.5 μg/m³ | PM10 μg/m³ |
|---|---|---|---|---|---|---|---|---|---|---|---|---|---|
| Sunday 16 August 2026 | |||||||||||||
| 15:37 | 2 | 20.8 | 66 | 56,360 | 0.17 | 0 | 1.39 | 10.22 | 60.49 | 0 | 0.71 | 2.74 | 4.29 |
| 15:36 | 2 | 20.7 | 66 | 56,245 | 0.2 | 0 | 1.44 | 11.99 | 65.36 | 0 | 0 | 1.75 | 3 |
| 15:35 | 2 | 20.7 | 67 | 56,122 | 0.19 | 0 | 1.3 | 9.83 | 57.24 | 0 | 0.71 | 2.23 | 3.65 |
| 15:34 | 2 | 20.6 | 67 | 55,983 | 0.2 | 0 | 1.2 | 14.01 | 68.58 | 0 | 0.71 | 2.22 | 3.65 |
| 15:33 | 2 | 20.5 | 67 | 55,871 | 0.2 | 0 | 1.17 | 11.72 | 67.63 | 0 | 0.71 | 2.22 | 4.3 |
| 15:32 | 2 | 20.5 | 67 | 55,782 | 0.21 | 0 | 1.16 | 17.7 | 67.15 | 0 | 1.43 | 3.2 | 4.95 |
| 15:31 | 2 | 20.4 | 67 | 55,712 | 0.21 | 0 | 1.18 | 18.01 | 61.53 | 0 | 0.71 | 2.71 | 4.31 |
| 15:30 | 2 | 20.4 | 67 | 55,625 | 0.22 | 0 | 1.22 | 11.86 | 65.21 | 0 | 0.71 | 2.7 | 4.31 |
| 15:29 | 2 | 20.3 | 67 | 55,491 | 0.18 | 0 | 1.19 | 11.72 | 66.27 | 0 | 0 | 1.71 | 3.03 |
| 15:28 | 2 | 20.3 | 67 | 55,319 | 0.17 | 0 | 1.21 | 11.91 | 67.07 | 0 | 0.71 | 2.69 | 4.32 |
| 15:27 | 2 | 20.2 | 68 | 55,141 | 0.23 | 0 | 1.19 | 15.67 | 66.91 | 0 | 0 | 2.19 | 4.32 |
| 15:26 | 2 | 20.2 | 68 | 54,955 | 0.18 | 0 | 1.14 | 13.64 | 69.09 | 0 | 0.71 | 2.68 | 4.97 |
| 15:24 | 2 | 20.1 | 68 | 54,795 | 0.15 | 0.47 | 1.16 | 26.49 | 63.46 | 0 | 0 | 2.18 | 3.69 |
| 15:23 | 2 | 20.1 | 68 | 54,775 | 0.15 | 0 | 1.15 | 15.06 | 71.49 | 0 | 0.71 | 2.18 | 3.69 |
| 15:22 | 2 | 20 | 68 | 54,732 | 0.14 | 0 | 1.16 | 20.16 | 66.28 | 0 | 1.43 | 2.67 | 4.33 |
| 15:20 | 2 | 20 | 68 | 54,533 | 0.17 | 0 | 1.14 | 16 | 68.94 | 0 | 0.71 | 2.66 | 4.33 |
| 15:19 | 2 | 20 | 68 | 54,393 | 0.13 | 1.39 | 1.14 | 26.82 | 64.7 | 0 | 0.71 | 3.64 | 5.61 |
| 15:18 | 2 | 19.9 | 68 | 54,240 | 0.1 | 0.68 | 1.15 | 17.58 | 70.31 | 0 | 1.43 | 2.66 | 4.33 |
| 15:16 | 2 | 19.9 | 68 | 53,978 | 0.07 | 0.63 | 1.22 | 18.38 | 68.84 | 0 | 0.71 | 2.18 | 3.69 |
| 15:15 | 2 | 19.8 | 68 | 53,855 | 0.11 | 3.87 | 1.2 | 24.26 | 69.14 | 0 | 0.71 | 2.66 | 4.97 |